N651CE LHBP-ETNL
Flight info
| Callsign | N651CE |
|---|---|
| Flight time | 2h 44m |
| Altitude | 12000 |
| Route | BADOV DCT JALKE DCT KREMI L617 REGLI L867 GERGA T239 GEVNI L23 TIMIB |
| Aircraft | DC6/M-S/C |
Departure
| Time | 2026-04-26 08:14 |
|---|---|
| Airport | Budapest Liszt Ferenc International Airport (LHBP) |
Arrival
| Time | 2026-04-26 10:59 |
|---|---|
| Airport | Rostock-Laage Airport (ETNL) |
| Time | Latitude | Longitude | Altitude | Speed | Heading |
|---|---|---|---|---|---|
| 2026-04-26 07:54 | 47.42855 | 19.24518 | 467 ft | 0 kts | 221° |
| 2026-04-26 08:05 | 47.42837 | 19.24494 | 464 ft | 12 kts | 224° |
| 2026-04-26 08:05 | 47.42853 | 19.24492 | 464 ft | 0 kts | 222° |
| 2026-04-26 08:05 | 47.42852 | 19.24491 | 463 ft | 0 kts | 41° |
| 2026-04-26 08:05 | 47.42872 | 19.24517 | 466 ft | 8 kts | 44° |
| 2026-04-26 08:06 | 47.42935 | 19.24578 | 475 ft | 15 kts | 32° |
| 2026-04-26 08:06 | 47.42959 | 19.24642 | 481 ft | 4 kts | 97° |
| 2026-04-26 08:06 | 47.42952 | 19.24694 | 477 ft | 6 kts | 104° |
| 2026-04-26 08:06 | 47.42929 | 19.24773 | 484 ft | 10 kts | 108° |
| 2026-04-26 08:07 | 47.42939 | 19.24842 | 488 ft | 4 kts | 41° |
| 2026-04-26 08:07 | 47.42967 | 19.24880 | 488 ft | 8 kts | 43° |
| 2026-04-26 08:07 | 47.42975 | 19.24892 | 485 ft | 0 kts | 43° |
| 2026-04-26 08:12 | 47.42977 | 19.24894 | 490 ft | 2 kts | 43° |
| 2026-04-26 08:12 | 47.43009 | 19.24931 | 484 ft | 9 kts | 30° |
| 2026-04-26 08:13 | 47.43087 | 19.24945 | 484 ft | 13 kts | 337° |
| 2026-04-26 08:13 | 47.43169 | 19.24829 | 482 ft | 25 kts | 312° |
| 2026-04-26 08:13 | 47.43384 | 19.24477 | 480 ft | 66 kts | 313° |
| 2026-04-26 08:13 | 47.43739 | 19.23891 | 547 ft | 82 kts | 313° |
| 2026-04-26 08:14 | 47.44094 | 19.23211 | 718 ft | 87 kts | 308° |
| 2026-04-26 08:14 | 47.44478 | 19.22503 | 925 ft | 91 kts | 320° |
| 2026-04-26 08:14 | 47.44919 | 19.21853 | 1285 ft | 89 kts | 316° |
| 2026-04-26 08:14 | 47.45388 | 19.21126 | 1536 ft | 111 kts | 316° |
| 2026-04-26 08:15 | 47.45949 | 19.20256 | 1952 ft | 115 kts | 317° |
| 2026-04-26 08:15 | 47.46489 | 19.19461 | 2462 ft | 113 kts | 316° |
| 2026-04-26 08:15 | 47.47092 | 19.18598 | 2682 ft | 125 kts | 316° |
| 2026-04-26 08:15 | 47.47669 | 19.17599 | 3023 ft | 130 kts | 312° |
| 2026-04-26 08:16 | 47.48186 | 19.16497 | 3453 ft | 128 kts | 307° |
| 2026-04-26 08:16 | 47.48748 | 19.15511 | 3893 ft | 122 kts | 319° |
| 2026-04-26 08:16 | 47.49352 | 19.14683 | 4316 ft | 119 kts | 320° |
| 2026-04-26 08:16 | 47.49961 | 19.13825 | 4624 ft | 123 kts | 320° |
| 2026-04-26 08:17 | 47.50625 | 19.13031 | 4960 ft | 124 kts | 326° |
| 2026-04-26 08:17 | 47.51332 | 19.12291 | 5284 ft | 124 kts | 328° |
| 2026-04-26 08:17 | 47.52044 | 19.11565 | 5596 ft | 124 kts | 325° |
| 2026-04-26 08:17 | 47.52739 | 19.10818 | 5912 ft | 124 kts | 324° |
| 2026-04-26 08:18 | 47.53447 | 19.10084 | 6252 ft | 122 kts | 324° |
| 2026-04-26 08:18 | 47.54139 | 19.09390 | 6561 ft | 120 kts | 324° |
| 2026-04-26 08:18 | 47.54828 | 19.08717 | 6847 ft | 118 kts | 324° |
| 2026-04-26 08:18 | 47.55512 | 19.08050 | 7134 ft | 117 kts | 324° |
| 2026-04-26 08:19 | 47.56192 | 19.07393 | 7407 ft | 116 kts | 324° |
| 2026-04-26 08:19 | 47.56858 | 19.06750 | 7668 ft | 115 kts | 324° |
| 2026-04-26 08:19 | 47.57516 | 19.06081 | 7920 ft | 113 kts | 320° |
| 2026-04-26 08:19 | 47.58072 | 19.05252 | 8165 ft | 113 kts | 314° |
| 2026-04-26 08:20 | 47.58589 | 19.04400 | 8406 ft | 112 kts | 314° |
| 2026-04-26 08:20 | 47.59111 | 19.03544 | 8578 ft | 112 kts | 314° |
| 2026-04-26 08:20 | 47.59648 | 19.02665 | 8850 ft | 116 kts | 313° |
| 2026-04-26 08:20 | 47.60196 | 19.01762 | 9168 ft | 119 kts | 313° |
| 2026-04-26 08:21 | 47.60755 | 19.00860 | 9456 ft | 120 kts | 314° |
| 2026-04-26 08:21 | 47.61325 | 18.99945 | 9748 ft | 121 kts | 314° |
| 2026-04-26 08:21 | 47.61705 | 18.99335 | 9950 ft | 121 kts | 313° |
| 2026-04-26 08:21 | 47.62277 | 18.98419 | 10213 ft | 121 kts | 314° |
| 2026-04-26 08:22 | 47.62851 | 18.97510 | 10502 ft | 120 kts | 314° |
| 2026-04-26 08:22 | 47.63439 | 18.96617 | 10789 ft | 121 kts | 315° |
| 2026-04-26 08:22 | 47.64148 | 18.95996 | 11119 ft | 120 kts | 339° |
| 2026-04-26 08:22 | 47.65009 | 18.96294 | 11383 ft | 144 kts | 20° |
| 2026-04-26 08:23 | 47.65766 | 18.97298 | 11594 ft | 146 kts | 25° |
| 2026-04-26 08:23 | 47.66462 | 18.98436 | 11835 ft | 151 kts | 34° |
| 2026-04-26 08:23 | 47.67166 | 18.99616 | 11906 ft | 156 kts | 32° |
| 2026-04-26 08:23 | 47.67874 | 19.00860 | 12107 ft | 158 kts | 33° |
| 2026-04-26 08:24 | 47.68637 | 19.02159 | 12101 ft | 176 kts | 33° |
| 2026-04-26 08:24 | 47.69488 | 19.03567 | 12104 ft | 189 kts | 34° |
| 2026-04-26 08:24 | 47.70392 | 19.05013 | 12123 ft | 198 kts | 33° |
| 2026-04-26 08:24 | 47.71348 | 19.06555 | 12097 ft | 206 kts | 33° |
| 2026-04-26 08:25 | 47.72382 | 19.08011 | 12090 ft | 202 kts | 25° |
| 2026-04-26 08:25 | 47.73515 | 19.09245 | 12087 ft | 204 kts | 22° |
| 2026-04-26 08:25 | 47.74666 | 19.10475 | 12089 ft | 207 kts | 22° |
| 2026-04-26 08:25 | 47.75850 | 19.11735 | 12085 ft | 211 kts | 22° |
| 2026-04-26 08:26 | 47.77060 | 19.13011 | 12086 ft | 215 kts | 22° |
| 2026-04-26 08:26 | 47.78292 | 19.14301 | 12089 ft | 218 kts | 22° |
| 2026-04-26 08:26 | 47.79574 | 19.15403 | 12050 ft | 204 kts | 5° |
| 2026-04-26 08:26 | 47.80865 | 19.15224 | 12065 ft | 185 kts | 330° |
| 2026-04-26 08:27 | 47.81791 | 19.13942 | 12093 ft | 182 kts | 312° |
| 2026-04-26 08:27 | 47.82628 | 19.12501 | 12090 ft | 184 kts | 312° |
| 2026-04-26 08:27 | 47.83517 | 19.11117 | 12083 ft | 186 kts | 316° |
| 2026-04-26 08:27 | 47.84450 | 19.09767 | 12086 ft | 187 kts | 316° |
| 2026-04-26 08:28 | 47.85382 | 19.08399 | 12102 ft | 188 kts | 316° |
| 2026-04-26 08:28 | 47.86320 | 19.07022 | 12100 ft | 189 kts | 316° |
| 2026-04-26 08:28 | 47.87246 | 19.05658 | 12099 ft | 189 kts | 316° |
| 2026-04-26 08:28 | 47.88185 | 19.04283 | 12098 ft | 189 kts | 316° |
| 2026-04-26 08:29 | 47.89128 | 19.02897 | 12094 ft | 190 kts | 315° |
| 2026-04-26 08:29 | 47.90072 | 19.01510 | 12096 ft | 190 kts | 316° |
| 2026-04-26 08:29 | 47.91015 | 19.00120 | 12091 ft | 190 kts | 315° |
| 2026-04-26 08:29 | 47.91955 | 18.98746 | 12088 ft | 188 kts | 316° |
| 2026-04-26 08:30 | 47.92867 | 18.97411 | 12088 ft | 187 kts | 315° |
| 2026-04-26 08:30 | 47.93799 | 18.96056 | 12095 ft | 186 kts | 316° |
| 2026-04-26 08:30 | 47.94726 | 18.94707 | 12112 ft | 185 kts | 316° |
| 2026-04-26 08:30 | 47.95648 | 18.93375 | 12102 ft | 185 kts | 315° |
| 2026-04-26 08:31 | 47.96563 | 18.92048 | 12110 ft | 185 kts | 316° |
| 2026-04-26 08:31 | 47.97489 | 18.90706 | 12109 ft | 185 kts | 316° |
| 2026-04-26 08:31 | 47.98407 | 18.89377 | 12105 ft | 186 kts | 315° |
| 2026-04-26 08:31 | 47.99341 | 18.88026 | 12106 ft | 186 kts | 315° |
| 2026-04-26 08:32 | 48.00270 | 18.86677 | 12099 ft | 186 kts | 316° |
| 2026-04-26 08:32 | 48.01198 | 18.85330 | 12101 ft | 185 kts | 315° |
| 2026-04-26 08:32 | 48.02123 | 18.83986 | 12111 ft | 185 kts | 315° |
| 2026-04-26 08:32 | 48.03033 | 18.82665 | 12108 ft | 184 kts | 316° |
| 2026-04-26 08:33 | 48.04059 | 18.81545 | 12089 ft | 186 kts | 333° |
| 2026-04-26 08:33 | 48.05368 | 18.81348 | 12111 ft | 192 kts | 353° |
| 2026-04-26 08:33 | 48.06698 | 18.81328 | 12110 ft | 189 kts | 348° |
| 2026-04-26 08:33 | 48.07959 | 18.80931 | 12102 ft | 182 kts | 333° |
| 2026-04-26 08:34 | 48.08998 | 18.79930 | 12110 ft | 179 kts | 320° |
| 2026-04-26 08:34 | 48.10021 | 18.78869 | 12085 ft | 181 kts | 331° |
| 2026-04-26 08:34 | 48.11291 | 18.78612 | 12120 ft | 186 kts | 348° |
| 2026-04-26 08:34 | 48.12578 | 18.78480 | 12117 ft | 187 kts | 347° |
| 2026-04-26 08:35 | 48.13887 | 18.78343 | 12112 ft | 189 kts | 347° |
| 2026-04-26 08:35 | 48.15198 | 18.78137 | 12116 ft | 188 kts | 343° |
| 2026-04-26 08:35 | 48.16473 | 18.77827 | 12115 ft | 188 kts | 343° |
| 2026-04-26 08:35 | 48.17772 | 18.77526 | 12121 ft | 188 kts | 343° |
| 2026-04-26 08:36 | 48.19067 | 18.77226 | 12122 ft | 188 kts | 343° |
| 2026-04-26 08:36 | 48.20365 | 18.76918 | 12118 ft | 188 kts | 342° |
| 2026-04-26 08:36 | 48.21637 | 18.76575 | 12116 ft | 188 kts | 342° |
| 2026-04-26 08:36 | 48.22933 | 18.76245 | 12116 ft | 188 kts | 342° |
| 2026-04-26 08:37 | 48.24226 | 18.75912 | 12120 ft | 188 kts | 342° |
| 2026-04-26 08:37 | 48.25521 | 18.75579 | 12117 ft | 189 kts | 342° |
| 2026-04-26 08:37 | 48.26820 | 18.75247 | 12117 ft | 188 kts | 342° |
| 2026-04-26 08:37 | 48.28099 | 18.74918 | 12119 ft | 189 kts | 343° |
| 2026-04-26 08:38 | 48.29396 | 18.74577 | 12114 ft | 189 kts | 342° |
| 2026-04-26 08:38 | 48.30694 | 18.74237 | 12114 ft | 189 kts | 342° |
| 2026-04-26 08:38 | 48.31989 | 18.73895 | 12112 ft | 189 kts | 342° |
| 2026-04-26 08:38 | 48.33285 | 18.73552 | 12112 ft | 189 kts | 342° |
| 2026-04-26 08:39 | 48.34568 | 18.73211 | 12112 ft | 189 kts | 342° |
| 2026-04-26 08:39 | 48.35866 | 18.72866 | 12113 ft | 189 kts | 342° |
| 2026-04-26 08:39 | 48.37150 | 18.72530 | 12118 ft | 190 kts | 342° |
| 2026-04-26 08:39 | 48.38453 | 18.72188 | 12120 ft | 190 kts | 342° |
| 2026-04-26 08:40 | 48.39761 | 18.71842 | 12135 ft | 191 kts | 342° |
| 2026-04-26 08:40 | 48.41059 | 18.71495 | 12133 ft | 191 kts | 343° |
| 2026-04-26 08:40 | 48.42271 | 18.71173 | 12135 ft | 191 kts | 342° |
| 2026-04-26 08:40 | 48.43660 | 18.70798 | 12135 ft | 193 kts | 343° |
| 2026-04-26 08:41 | 48.44982 | 18.70442 | 12136 ft | 192 kts | 342° |
| 2026-04-26 08:41 | 48.46295 | 18.70089 | 12131 ft | 191 kts | 342° |
| 2026-04-26 08:41 | 48.47603 | 18.69743 | 12125 ft | 189 kts | 342° |
| 2026-04-26 08:41 | 48.48884 | 18.69422 | 12126 ft | 189 kts | 343° |
| 2026-04-26 08:42 | 48.50176 | 18.69089 | 12117 ft | 187 kts | 342° |
| 2026-04-26 08:42 | 48.51462 | 18.68771 | 12121 ft | 186 kts | 343° |
| 2026-04-26 08:42 | 48.52741 | 18.68448 | 12114 ft | 186 kts | 342° |
| 2026-04-26 08:42 | 48.54002 | 18.68114 | 12123 ft | 187 kts | 342° |
| 2026-04-26 08:43 | 48.55288 | 18.67772 | 12124 ft | 187 kts | 343° |
| 2026-04-26 08:43 | 48.56566 | 18.67427 | 12132 ft | 185 kts | 343° |
| 2026-04-26 08:43 | 48.57836 | 18.67081 | 12133 ft | 185 kts | 342° |
| 2026-04-26 08:43 | 48.59101 | 18.66739 | 12132 ft | 183 kts | 342° |
| 2026-04-26 08:44 | 48.60343 | 18.66408 | 12137 ft | 183 kts | 343° |
| 2026-04-26 08:44 | 48.61605 | 18.66075 | 12128 ft | 184 kts | 343° |
| 2026-04-26 08:44 | 48.62868 | 18.65748 | 12133 ft | 183 kts | 343° |
| 2026-04-26 08:44 | 48.64093 | 18.65423 | 12146 ft | 180 kts | 342° |
| 2026-04-26 08:45 | 48.65344 | 18.65086 | 12144 ft | 184 kts | 342° |
| 2026-04-26 08:45 | 48.66605 | 18.64745 | 12145 ft | 186 kts | 343° |
| 2026-04-26 08:45 | 48.67873 | 18.64399 | 12140 ft | 188 kts | 342° |
| 2026-04-26 08:45 | 48.69156 | 18.64057 | 12150 ft | 186 kts | 343° |
| 2026-04-26 08:46 | 48.70438 | 18.63708 | 12140 ft | 187 kts | 342° |
| 2026-04-26 08:46 | 48.71723 | 18.63362 | 12139 ft | 186 kts | 342° |
| 2026-04-26 08:46 | 48.72985 | 18.63019 | 12140 ft | 186 kts | 342° |
| 2026-04-26 08:46 | 48.74267 | 18.62672 | 12138 ft | 186 kts | 342° |
| 2026-04-26 08:47 | 48.75527 | 18.62335 | 12138 ft | 185 kts | 343° |
| 2026-04-26 08:47 | 48.76796 | 18.61988 | 12142 ft | 184 kts | 343° |
| 2026-04-26 08:47 | 48.78061 | 18.61635 | 12140 ft | 184 kts | 342° |
| 2026-04-26 08:47 | 48.79319 | 18.61284 | 12138 ft | 183 kts | 343° |
| 2026-04-26 08:48 | 48.80559 | 18.60938 | 12141 ft | 183 kts | 342° |
| 2026-04-26 08:48 | 48.81810 | 18.60590 | 12139 ft | 182 kts | 343° |
| 2026-04-26 08:48 | 48.83061 | 18.60242 | 12137 ft | 182 kts | 343° |
| 2026-04-26 08:48 | 48.84306 | 18.59895 | 12145 ft | 182 kts | 343° |
| 2026-04-26 08:49 | 48.85529 | 18.59552 | 12144 ft | 181 kts | 342° |
| 2026-04-26 08:49 | 48.86769 | 18.59204 | 12144 ft | 181 kts | 342° |
| 2026-04-26 08:49 | 48.88007 | 18.58857 | 12135 ft | 180 kts | 343° |
| 2026-04-26 08:49 | 48.89225 | 18.58512 | 12134 ft | 176 kts | 343° |
| 2026-04-26 08:50 | 48.90406 | 18.58167 | 12165 ft | 171 kts | 342° |
| 2026-04-26 08:50 | 48.91579 | 18.57841 | 12144 ft | 171 kts | 342° |
| 2026-04-26 08:50 | 48.92740 | 18.57526 | 12151 ft | 170 kts | 343° |
| 2026-04-26 08:50 | 48.93906 | 18.57207 | 12150 ft | 171 kts | 342° |
| 2026-04-26 08:51 | 48.96223 | 18.56563 | 12165 ft | 168 kts | 342° |
| 2026-04-26 08:51 | 48.97391 | 18.56244 | 12167 ft | 173 kts | 343° |
| 2026-04-26 08:51 | 48.98595 | 18.55907 | 12158 ft | 177 kts | 343° |
| 2026-04-26 08:52 | 48.99807 | 18.55565 | 12173 ft | 178 kts | 342° |
| 2026-04-26 08:52 | 49.01036 | 18.55225 | 12166 ft | 180 kts | 343° |
| 2026-04-26 08:52 | 49.02273 | 18.54870 | 12164 ft | 181 kts | 342° |
| 2026-04-26 08:52 | 49.03513 | 18.54515 | 12169 ft | 181 kts | 342° |
| 2026-04-26 08:53 | 49.04755 | 18.54160 | 12159 ft | 182 kts | 343° |
| 2026-04-26 08:53 | 49.05997 | 18.53806 | 12158 ft | 181 kts | 343° |
| 2026-04-26 08:53 | 49.07236 | 18.53453 | 12164 ft | 182 kts | 343° |
| 2026-04-26 08:53 | 49.08482 | 18.53096 | 12164 ft | 183 kts | 343° |
| 2026-04-26 08:54 | 49.09737 | 18.52734 | 12162 ft | 183 kts | 343° |
| 2026-04-26 08:54 | 49.10982 | 18.52376 | 12160 ft | 182 kts | 343° |
| 2026-04-26 08:54 | 49.12233 | 18.52011 | 12159 ft | 184 kts | 342° |
| 2026-04-26 08:54 | 49.13464 | 18.51654 | 12159 ft | 181 kts | 342° |
| 2026-04-26 08:55 | 49.14698 | 18.51291 | 12143 ft | 177 kts | 342° |
| 2026-04-26 08:55 | 49.15871 | 18.50947 | 12166 ft | 174 kts | 343° |
| 2026-04-26 08:55 | 49.17065 | 18.50614 | 12176 ft | 176 kts | 343° |
| 2026-04-26 08:55 | 49.18271 | 18.50265 | 12176 ft | 178 kts | 343° |
| 2026-04-26 08:56 | 49.19489 | 18.49913 | 12166 ft | 177 kts | 342° |
| 2026-04-26 08:56 | 49.20288 | 18.49678 | 12178 ft | 177 kts | 342° |
| 2026-04-26 08:56 | 49.21911 | 18.49217 | 12164 ft | 177 kts | 343° |
| 2026-04-26 08:56 | 49.23127 | 18.48867 | 12160 ft | 177 kts | 343° |
| 2026-04-26 08:57 | 49.24329 | 18.48522 | 12146 ft | 178 kts | 343° |
| 2026-04-26 08:57 | 49.25547 | 18.48158 | 12157 ft | 179 kts | 343° |
| 2026-04-26 08:57 | 49.26772 | 18.47783 | 12155 ft | 179 kts | 342° |
| 2026-04-26 08:57 | 49.27998 | 18.47405 | 12156 ft | 179 kts | 342° |
| 2026-04-26 08:58 | 49.29215 | 18.47036 | 12156 ft | 180 kts | 343° |
| 2026-04-26 08:58 | 49.30446 | 18.46667 | 12165 ft | 181 kts | 342° |
| 2026-04-26 08:58 | 49.31686 | 18.46293 | 12165 ft | 181 kts | 343° |
| 2026-04-26 08:58 | 49.32930 | 18.45910 | 12160 ft | 181 kts | 343° |
| 2026-04-26 08:59 | 49.34139 | 18.45419 | 12165 ft | 179 kts | 336° |
| 2026-04-26 08:59 | 49.35295 | 18.44789 | 12166 ft | 179 kts | 336° |
| 2026-04-26 08:59 | 49.36479 | 18.44159 | 12159 ft | 179 kts | 337° |
| 2026-04-26 08:59 | 49.37657 | 18.43525 | 12166 ft | 180 kts | 336° |
| 2026-04-26 09:00 | 49.38840 | 18.42896 | 12162 ft | 179 kts | 337° |
| 2026-04-26 09:00 | 49.40015 | 18.42266 | 12175 ft | 180 kts | 336° |
| 2026-04-26 09:00 | 49.41195 | 18.41619 | 12170 ft | 179 kts | 336° |
| 2026-04-26 09:00 | 49.42356 | 18.40986 | 12173 ft | 179 kts | 337° |
| 2026-04-26 09:01 | 49.43533 | 18.40343 | 12172 ft | 178 kts | 337° |
| 2026-04-26 09:01 | 49.44703 | 18.39695 | 12175 ft | 178 kts | 336° |
| 2026-04-26 09:01 | 49.45873 | 18.39055 | 12171 ft | 178 kts | 337° |
| 2026-04-26 09:01 | 49.47053 | 18.38414 | 12177 ft | 179 kts | 336° |
| 2026-04-26 09:02 | 49.48231 | 18.37775 | 12187 ft | 179 kts | 337° |
| 2026-04-26 09:02 | 49.49388 | 18.37142 | 12186 ft | 178 kts | 337° |
| 2026-04-26 09:02 | 49.50541 | 18.36495 | 12203 ft | 175 kts | 337° |
| 2026-04-26 09:02 | 49.51713 | 18.35850 | 12194 ft | 181 kts | 336° |
| 2026-04-26 09:03 | 49.52892 | 18.35199 | 12200 ft | 182 kts | 336° |
| 2026-04-26 09:03 | 49.54085 | 18.34544 | 12204 ft | 182 kts | 336° |
| 2026-04-26 09:03 | 49.55282 | 18.33886 | 12205 ft | 182 kts | 336° |
| 2026-04-26 09:03 | 49.56429 | 18.33102 | 12201 ft | 179 kts | 332° |
| 2026-04-26 09:04 | 49.57556 | 18.32270 | 12197 ft | 179 kts | 333° |
| 2026-04-26 09:04 | 49.58658 | 18.31463 | 12206 ft | 176 kts | 332° |
| 2026-04-26 09:04 | 49.59780 | 18.30649 | 12206 ft | 179 kts | 333° |
| 2026-04-26 09:04 | 49.60920 | 18.29840 | 12201 ft | 179 kts | 333° |
| 2026-04-26 09:05 | 49.62048 | 18.29032 | 12210 ft | 179 kts | 333° |
| 2026-04-26 09:05 | 49.63182 | 18.28224 | 12202 ft | 178 kts | 333° |
| 2026-04-26 09:05 | 49.64303 | 18.27417 | 12202 ft | 177 kts | 333° |
| 2026-04-26 09:05 | 49.65411 | 18.26621 | 12210 ft | 178 kts | 333° |
| 2026-04-26 09:06 | 49.66542 | 18.25814 | 12209 ft | 179 kts | 333° |
| 2026-04-26 09:06 | 49.67676 | 18.25005 | 12208 ft | 180 kts | 333° |
| 2026-04-26 09:06 | 49.68812 | 18.24194 | 12212 ft | 180 kts | 333° |
| 2026-04-26 09:06 | 49.69947 | 18.23382 | 12212 ft | 180 kts | 333° |
| 2026-04-26 09:07 | 49.71087 | 18.22570 | 12211 ft | 179 kts | 333° |
| 2026-04-26 09:07 | 49.72175 | 18.21790 | 12214 ft | 180 kts | 333° |
| 2026-04-26 09:07 | 49.73311 | 18.20976 | 12213 ft | 180 kts | 333° |
| 2026-04-26 09:07 | 49.74451 | 18.20160 | 12215 ft | 180 kts | 333° |
| 2026-04-26 09:08 | 49.75595 | 18.19340 | 12213 ft | 181 kts | 333° |
| 2026-04-26 09:08 | 49.76727 | 18.18529 | 12213 ft | 181 kts | 333° |
| 2026-04-26 09:08 | 49.77869 | 18.17709 | 12212 ft | 180 kts | 333° |
| 2026-04-26 09:08 | 49.78624 | 18.17168 | 12212 ft | 180 kts | 333° |
| 2026-04-26 09:09 | 49.79760 | 18.16353 | 12210 ft | 180 kts | 333° |
| 2026-04-26 09:09 | 49.80894 | 18.15539 | 12210 ft | 180 kts | 333° |
| 2026-04-26 09:09 | 49.82031 | 18.14724 | 12211 ft | 180 kts | 333° |
| 2026-04-26 09:09 | 49.83139 | 18.13928 | 12209 ft | 180 kts | 333° |
| 2026-04-26 09:10 | 49.84275 | 18.13114 | 12206 ft | 180 kts | 333° |
| 2026-04-26 09:10 | 49.85406 | 18.12302 | 12207 ft | 179 kts | 333° |
| 2026-04-26 09:10 | 49.86540 | 18.11487 | 12205 ft | 179 kts | 333° |
| 2026-04-26 09:10 | 49.87678 | 18.10670 | 12205 ft | 180 kts | 333° |
| 2026-04-26 09:11 | 49.88803 | 18.09861 | 12206 ft | 180 kts | 333° |
| 2026-04-26 09:11 | 49.89944 | 18.09038 | 12207 ft | 181 kts | 333° |
| 2026-04-26 09:11 | 49.91008 | 18.08029 | 12205 ft | 180 kts | 321° |
| 2026-04-26 09:11 | 49.91905 | 18.06679 | 12217 ft | 180 kts | 318° |
| 2026-04-26 09:12 | 49.92796 | 18.05310 | 12211 ft | 180 kts | 318° |
| 2026-04-26 09:12 | 49.93689 | 18.03952 | 12210 ft | 179 kts | 319° |
| 2026-04-26 09:12 | 49.94595 | 18.02659 | 12210 ft | 179 kts | 319° |
| 2026-04-26 09:12 | 49.95498 | 18.01330 | 12209 ft | 178 kts | 319° |
| 2026-04-26 09:13 | 49.96421 | 18.00047 | 12212 ft | 178 kts | 320° |
| 2026-04-26 09:13 | 49.97340 | 17.98744 | 12213 ft | 179 kts | 320° |
| 2026-04-26 09:13 | 49.98249 | 17.97451 | 12213 ft | 179 kts | 320° |
| 2026-04-26 09:13 | 49.99167 | 17.96145 | 12213 ft | 179 kts | 320° |
| 2026-04-26 09:14 | 50.00087 | 17.94834 | 12213 ft | 179 kts | 320° |
| 2026-04-26 09:14 | 50.01007 | 17.93525 | 12214 ft | 179 kts | 320° |
| 2026-04-26 09:14 | 50.01925 | 17.92218 | 12215 ft | 179 kts | 320° |
| 2026-04-26 09:14 | 50.02834 | 17.90922 | 12213 ft | 179 kts | 320° |
| 2026-04-26 09:15 | 50.03752 | 17.89613 | 12217 ft | 179 kts | 320° |
| 2026-04-26 09:15 | 50.04671 | 17.88303 | 12215 ft | 179 kts | 320° |
| 2026-04-26 09:15 | 50.05590 | 17.86991 | 12216 ft | 179 kts | 320° |
| 2026-04-26 09:15 | 50.06501 | 17.85693 | 12215 ft | 179 kts | 320° |
| 2026-04-26 09:16 | 50.07420 | 17.84379 | 12215 ft | 179 kts | 320° |
| 2026-04-26 09:16 | 50.08343 | 17.83060 | 12213 ft | 179 kts | 320° |
| 2026-04-26 09:16 | 50.09262 | 17.81747 | 12217 ft | 179 kts | 320° |
| 2026-04-26 09:16 | 50.10172 | 17.80446 | 12217 ft | 179 kts | 320° |
| 2026-04-26 09:17 | 50.11091 | 17.79132 | 12216 ft | 179 kts | 320° |
| 2026-04-26 09:17 | 50.12008 | 17.77818 | 12214 ft | 179 kts | 320° |
| 2026-04-26 09:17 | 50.12932 | 17.76497 | 12216 ft | 179 kts | 320° |
| 2026-04-26 09:17 | 50.13845 | 17.75188 | 12214 ft | 179 kts | 320° |
| 2026-04-26 09:18 | 50.14766 | 17.73869 | 12215 ft | 179 kts | 320° |
| 2026-04-26 09:18 | 50.15674 | 17.72568 | 12217 ft | 179 kts | 320° |
| 2026-04-26 09:18 | 50.16599 | 17.71245 | 12217 ft | 180 kts | 320° |
| 2026-04-26 09:18 | 50.17525 | 17.69918 | 12219 ft | 180 kts | 320° |
| 2026-04-26 09:19 | 50.18438 | 17.68610 | 12196 ft | 180 kts | 320° |
| 2026-04-26 09:19 | 50.19363 | 17.67280 | 12211 ft | 180 kts | 320° |
| 2026-04-26 09:19 | 50.20284 | 17.65955 | 12210 ft | 181 kts | 320° |
| 2026-04-26 09:19 | 50.21211 | 17.64622 | 12211 ft | 180 kts | 320° |
| 2026-04-26 09:20 | 50.22135 | 17.63292 | 12212 ft | 181 kts | 320° |
| 2026-04-26 09:20 | 50.23062 | 17.61956 | 12219 ft | 182 kts | 320° |
| 2026-04-26 09:20 | 50.23973 | 17.60618 | 12225 ft | 182 kts | 320° |
| 2026-04-26 09:20 | 50.24895 | 17.59264 | 12222 ft | 181 kts | 320° |
| 2026-04-26 09:21 | 50.25817 | 17.57908 | 12219 ft | 181 kts | 320° |
| 2026-04-26 09:21 | 50.26733 | 17.56559 | 12218 ft | 180 kts | 320° |
| 2026-04-26 09:21 | 50.27645 | 17.55215 | 12220 ft | 180 kts | 320° |
| 2026-04-26 09:21 | 50.28548 | 17.53884 | 12215 ft | 180 kts | 320° |
| 2026-04-26 09:22 | 50.29464 | 17.52532 | 12219 ft | 180 kts | 320° |
| 2026-04-26 09:22 | 50.30377 | 17.51185 | 12220 ft | 181 kts | 320° |
| 2026-04-26 09:22 | 50.31293 | 17.49835 | 12219 ft | 180 kts | 320° |
| 2026-04-26 09:22 | 50.32207 | 17.48486 | 12220 ft | 180 kts | 320° |
| 2026-04-26 09:23 | 50.33123 | 17.47137 | 12216 ft | 180 kts | 320° |
| 2026-04-26 09:23 | 50.34025 | 17.45801 | 12216 ft | 180 kts | 320° |
| 2026-04-26 09:23 | 50.34937 | 17.44451 | 12215 ft | 180 kts | 320° |
| 2026-04-26 09:23 | 50.35848 | 17.43101 | 12216 ft | 180 kts | 320° |
| 2026-04-26 09:24 | 50.36761 | 17.41747 | 12219 ft | 180 kts | 320° |
| 2026-04-26 09:24 | 50.37662 | 17.40413 | 12219 ft | 180 kts | 320° |
| 2026-04-26 09:24 | 50.38576 | 17.39055 | 12219 ft | 181 kts | 320° |
| 2026-04-26 09:24 | 50.39491 | 17.37698 | 12219 ft | 181 kts | 320° |
| 2026-04-26 09:25 | 50.40405 | 17.36340 | 12220 ft | 181 kts | 320° |
| 2026-04-26 09:25 | 50.41322 | 17.34977 | 12201 ft | 181 kts | 319° |
| 2026-04-26 09:25 | 50.42226 | 17.33647 | 12216 ft | 181 kts | 320° |
| 2026-04-26 09:25 | 50.43147 | 17.32296 | 12216 ft | 182 kts | 320° |
| 2026-04-26 09:26 | 50.44075 | 17.30933 | 12217 ft | 182 kts | 320° |
| 2026-04-26 09:26 | 50.45002 | 17.29574 | 12217 ft | 182 kts | 320° |
| 2026-04-26 09:26 | 50.45616 | 17.28673 | 12217 ft | 182 kts | 320° |
| 2026-04-26 09:26 | 50.45617 | 17.28672 | 12217 ft | 182 kts | 320° |
| 2026-04-26 09:27 | 50.46445 | 17.27456 | 12217 ft | 182 kts | 320° |
| 2026-04-26 09:27 | 50.47371 | 17.26095 | 12222 ft | 181 kts | 320° |
| 2026-04-26 09:27 | 50.48293 | 17.24743 | 12220 ft | 181 kts | 320° |
| 2026-04-26 09:27 | 50.49212 | 17.23433 | 12223 ft | 181 kts | 320° |
| 2026-04-26 09:28 | 50.50138 | 17.22082 | 12221 ft | 182 kts | 320° |
| 2026-04-26 09:28 | 50.51064 | 17.20722 | 12221 ft | 182 kts | 320° |
| 2026-04-26 09:28 | 50.51986 | 17.19365 | 12219 ft | 181 kts | 320° |
| 2026-04-26 09:28 | 50.52908 | 17.18010 | 12218 ft | 181 kts | 320° |
| 2026-04-26 09:29 | 50.53817 | 17.16667 | 12227 ft | 182 kts | 320° |
| 2026-04-26 09:29 | 50.54729 | 17.15286 | 12235 ft | 182 kts | 320° |
| 2026-04-26 09:29 | 50.55643 | 17.13902 | 12238 ft | 182 kts | 320° |
| 2026-04-26 09:29 | 50.56557 | 17.12514 | 12236 ft | 182 kts | 320° |
| 2026-04-26 09:30 | 50.57456 | 17.11146 | 12241 ft | 182 kts | 320° |
| 2026-04-26 09:30 | 50.58370 | 17.09755 | 12242 ft | 182 kts | 320° |
| 2026-04-26 09:30 | 50.59284 | 17.08363 | 12242 ft | 182 kts | 320° |
| 2026-04-26 09:30 | 50.60200 | 17.06972 | 12241 ft | 183 kts | 320° |
| 2026-04-26 09:31 | 50.61107 | 17.05591 | 12239 ft | 183 kts | 320° |
| 2026-04-26 09:31 | 50.62026 | 17.04191 | 12239 ft | 183 kts | 320° |
| 2026-04-26 09:31 | 50.62941 | 17.02796 | 12240 ft | 183 kts | 320° |
| 2026-04-26 09:31 | 50.63856 | 17.01400 | 12239 ft | 183 kts | 320° |
| 2026-04-26 09:32 | 50.64773 | 17.00006 | 12225 ft | 183 kts | 320° |
| 2026-04-26 09:32 | 50.65679 | 16.98636 | 12223 ft | 183 kts | 320° |
| 2026-04-26 09:32 | 50.66598 | 16.97245 | 12227 ft | 183 kts | 320° |
| 2026-04-26 09:32 | 50.67514 | 16.95860 | 12226 ft | 183 kts | 320° |
| 2026-04-26 09:33 | 50.68435 | 16.94469 | 12229 ft | 183 kts | 320° |
| 2026-04-26 09:33 | 50.69355 | 16.93076 | 12230 ft | 183 kts | 320° |
| 2026-04-26 09:33 | 50.70266 | 16.91696 | 12229 ft | 183 kts | 320° |
| 2026-04-26 09:33 | 50.71190 | 16.90299 | 12230 ft | 184 kts | 320° |
| 2026-04-26 09:34 | 50.72112 | 16.88901 | 12229 ft | 184 kts | 320° |
| 2026-04-26 09:34 | 50.73039 | 16.87500 | 12228 ft | 184 kts | 320° |
| 2026-04-26 09:34 | 50.73950 | 16.86120 | 12229 ft | 184 kts | 320° |
| 2026-04-26 09:34 | 50.74875 | 16.84720 | 12231 ft | 184 kts | 320° |
| 2026-04-26 09:35 | 50.75704 | 16.83465 | 12236 ft | 184 kts | 320° |
| 2026-04-26 09:35 | 50.76631 | 16.82058 | 12235 ft | 184 kts | 320° |
| 2026-04-26 09:35 | 50.77560 | 16.80653 | 12237 ft | 184 kts | 320° |
| 2026-04-26 09:35 | 50.78477 | 16.79263 | 12236 ft | 185 kts | 320° |
| 2026-04-26 09:36 | 50.79408 | 16.77852 | 12235 ft | 185 kts | 320° |
| 2026-04-26 09:36 | 50.80329 | 16.76456 | 12236 ft | 185 kts | 320° |
| 2026-04-26 09:36 | 50.81262 | 16.75042 | 12236 ft | 185 kts | 320° |
| 2026-04-26 09:36 | 50.82192 | 16.73636 | 12234 ft | 184 kts | 320° |
| 2026-04-26 09:37 | 50.83110 | 16.72251 | 12227 ft | 183 kts | 320° |
| 2026-04-26 09:37 | 50.84034 | 16.70855 | 12235 ft | 183 kts | 320° |
| 2026-04-26 09:37 | 50.84960 | 16.69439 | 12235 ft | 185 kts | 320° |
| 2026-04-26 09:37 | 50.85872 | 16.68005 | 12242 ft | 184 kts | 320° |
| 2026-04-26 09:38 | 50.86771 | 16.66589 | 12237 ft | 185 kts | 320° |
| 2026-04-26 09:38 | 50.87689 | 16.65152 | 12230 ft | 184 kts | 320° |
| 2026-04-26 09:38 | 50.88607 | 16.63725 | 12230 ft | 185 kts | 320° |
| 2026-04-26 09:38 | 50.89525 | 16.62301 | 12230 ft | 185 kts | 320° |
| 2026-04-26 09:39 | 50.90445 | 16.60871 | 12231 ft | 185 kts | 320° |
| 2026-04-26 09:39 | 50.91368 | 16.59435 | 12232 ft | 186 kts | 319° |
| 2026-04-26 09:39 | 50.92291 | 16.58000 | 12233 ft | 186 kts | 320° |
| 2026-04-26 09:39 | 50.93214 | 16.56563 | 12232 ft | 186 kts | 320° |
| 2026-04-26 09:40 | 50.94126 | 16.55145 | 12233 ft | 186 kts | 320° |
| 2026-04-26 09:40 | 50.95050 | 16.53706 | 12234 ft | 186 kts | 320° |
| 2026-04-26 09:40 | 50.95981 | 16.52257 | 12232 ft | 186 kts | 319° |
| 2026-04-26 09:40 | 50.96896 | 16.50835 | 12234 ft | 186 kts | 320° |
| 2026-04-26 09:41 | 50.97821 | 16.49397 | 12235 ft | 186 kts | 320° |
| 2026-04-26 09:41 | 50.98749 | 16.47954 | 12235 ft | 186 kts | 319° |
| 2026-04-26 09:41 | 50.99673 | 16.46516 | 12235 ft | 186 kts | 320° |
| 2026-04-26 09:41 | 51.00585 | 16.45097 | 12234 ft | 185 kts | 320° |
| 2026-04-26 09:42 | 51.01508 | 16.43659 | 12232 ft | 185 kts | 320° |
| 2026-04-26 09:42 | 51.02427 | 16.42225 | 12231 ft | 185 kts | 320° |
| 2026-04-26 09:42 | 51.03348 | 16.40791 | 12232 ft | 185 kts | 319° |
| 2026-04-26 09:42 | 51.04271 | 16.39353 | 12232 ft | 186 kts | 320° |
| 2026-04-26 09:43 | 51.05199 | 16.37907 | 12235 ft | 186 kts | 320° |
| 2026-04-26 09:43 | 51.06111 | 16.36479 | 12236 ft | 186 kts | 320° |
| 2026-04-26 09:43 | 51.07047 | 16.35018 | 12236 ft | 186 kts | 320° |
| 2026-04-26 09:43 | 51.07964 | 16.33586 | 12236 ft | 186 kts | 319° |
| 2026-04-26 09:44 | 51.08890 | 16.32138 | 12236 ft | 186 kts | 320° |
| 2026-04-26 09:44 | 51.09815 | 16.30689 | 12228 ft | 186 kts | 319° |
| 2026-04-26 09:44 | 51.10734 | 16.29267 | 12236 ft | 186 kts | 320° |
| 2026-04-26 09:44 | 51.11667 | 16.27823 | 12237 ft | 187 kts | 319° |
| 2026-04-26 09:45 | 51.12606 | 16.26371 | 12237 ft | 188 kts | 320° |
| 2026-04-26 09:45 | 51.13546 | 16.24920 | 12239 ft | 188 kts | 319° |
| 2026-04-26 09:45 | 51.14476 | 16.23482 | 12239 ft | 188 kts | 319° |
| 2026-04-26 09:45 | 51.15419 | 16.22023 | 12272 ft | 189 kts | 320° |
| 2026-04-26 09:46 | 51.16358 | 16.20551 | 12247 ft | 189 kts | 320° |
| 2026-04-26 09:46 | 51.17294 | 16.19077 | 12248 ft | 188 kts | 320° |
| 2026-04-26 09:46 | 51.18213 | 16.17626 | 12247 ft | 188 kts | 319° |
| 2026-04-26 09:46 | 51.19145 | 16.16155 | 12249 ft | 187 kts | 319° |
| 2026-04-26 09:47 | 51.20073 | 16.14687 | 12246 ft | 187 kts | 320° |
| 2026-04-26 09:47 | 51.20988 | 16.13241 | 12246 ft | 187 kts | 319° |
| 2026-04-26 09:47 | 51.21918 | 16.11772 | 12246 ft | 187 kts | 319° |
| 2026-04-26 09:47 | 51.22844 | 16.10308 | 12246 ft | 187 kts | 319° |
| 2026-04-26 09:48 | 51.23773 | 16.08840 | 12248 ft | 187 kts | 320° |
| 2026-04-26 09:48 | 51.24698 | 16.07376 | 12248 ft | 187 kts | 319° |
| 2026-04-26 09:48 | 51.25624 | 16.05909 | 12247 ft | 187 kts | 320° |
| 2026-04-26 09:48 | 51.26536 | 16.04464 | 12246 ft | 187 kts | 319° |
| 2026-04-26 09:49 | 51.27464 | 16.02991 | 12244 ft | 187 kts | 320° |
| 2026-04-26 09:49 | 51.28390 | 16.01523 | 12247 ft | 187 kts | 319° |
| 2026-04-26 09:49 | 51.29313 | 16.00059 | 12247 ft | 187 kts | 319° |
| 2026-04-26 09:49 | 51.30237 | 15.98590 | 12248 ft | 187 kts | 319° |
| 2026-04-26 09:50 | 51.31163 | 15.97121 | 12245 ft | 187 kts | 319° |
| 2026-04-26 09:50 | 51.32079 | 15.95663 | 12245 ft | 187 kts | 319° |
| 2026-04-26 09:50 | 51.33006 | 15.94197 | 12241 ft | 186 kts | 319° |
| 2026-04-26 09:50 | 51.33936 | 15.92744 | 12240 ft | 187 kts | 319° |
| 2026-04-26 09:51 | 51.34871 | 15.91280 | 12243 ft | 188 kts | 319° |
| 2026-04-26 09:51 | 51.35800 | 15.89829 | 12242 ft | 188 kts | 319° |
| 2026-04-26 09:51 | 51.36746 | 15.88351 | 12244 ft | 189 kts | 319° |
| 2026-04-26 09:51 | 51.37676 | 15.86896 | 12249 ft | 189 kts | 319° |
| 2026-04-26 09:52 | 51.38531 | 15.85562 | 12253 ft | 189 kts | 319° |
| 2026-04-26 09:52 | 51.40416 | 15.82617 | 12250 ft | 189 kts | 319° |
| 2026-04-26 09:52 | 51.41357 | 15.81168 | 12250 ft | 188 kts | 321° |
| 2026-04-26 09:53 | 51.42418 | 15.79926 | 12241 ft | 187 kts | 329° |
| 2026-04-26 09:53 | 51.43500 | 15.78767 | 12241 ft | 187 kts | 327° |
| 2026-04-26 09:53 | 51.44564 | 15.77600 | 12242 ft | 187 kts | 327° |
| 2026-04-26 09:53 | 51.45645 | 15.76414 | 12244 ft | 188 kts | 327° |
| 2026-04-26 09:54 | 51.46725 | 15.75222 | 12257 ft | 188 kts | 327° |
| 2026-04-26 09:54 | 51.47800 | 15.74023 | 12265 ft | 188 kts | 327° |
| 2026-04-26 09:54 | 51.48873 | 15.72824 | 12264 ft | 188 kts | 327° |
| 2026-04-26 09:54 | 51.49945 | 15.71626 | 12267 ft | 188 kts | 327° |
| 2026-04-26 09:55 | 51.50656 | 15.70832 | 12262 ft | 188 kts | 327° |
| 2026-04-26 09:55 | 51.51727 | 15.69632 | 12265 ft | 188 kts | 327° |
| 2026-04-26 09:55 | 51.52800 | 15.68432 | 12265 ft | 188 kts | 327° |
| 2026-04-26 09:55 | 51.53869 | 15.67234 | 12266 ft | 188 kts | 327° |
| 2026-04-26 09:56 | 51.55289 | 15.65643 | 12262 ft | 188 kts | 327° |
| 2026-04-26 09:56 | 51.56014 | 15.64832 | 12264 ft | 188 kts | 327° |
| 2026-04-26 09:56 | 51.57075 | 15.63644 | 12264 ft | 188 kts | 327° |
| 2026-04-26 09:56 | 51.58148 | 15.62442 | 12264 ft | 188 kts | 327° |
| 2026-04-26 09:57 | 51.59221 | 15.61242 | 12259 ft | 188 kts | 327° |
| 2026-04-26 09:57 | 51.60293 | 15.60040 | 12256 ft | 188 kts | 327° |
| 2026-04-26 09:57 | 51.61370 | 15.58842 | 12255 ft | 188 kts | 327° |
| 2026-04-26 09:57 | 51.62449 | 15.57637 | 12255 ft | 189 kts | 327° |
| 2026-04-26 09:58 | 51.63529 | 15.56434 | 12252 ft | 189 kts | 327° |
| 2026-04-26 09:58 | 51.64613 | 15.55226 | 12253 ft | 189 kts | 327° |
| 2026-04-26 09:58 | 51.65695 | 15.54019 | 12254 ft | 189 kts | 327° |
| 2026-04-26 09:58 | 51.66780 | 15.52810 | 12254 ft | 190 kts | 327° |
| 2026-04-26 09:59 | 51.67853 | 15.51613 | 12255 ft | 190 kts | 327° |
| 2026-04-26 09:59 | 51.68944 | 15.50397 | 12255 ft | 190 kts | 327° |
| 2026-04-26 09:59 | 51.70031 | 15.49184 | 12256 ft | 190 kts | 327° |
| 2026-04-26 09:59 | 51.71121 | 15.47968 | 12256 ft | 190 kts | 327° |
| 2026-04-26 10:00 | 51.72209 | 15.46752 | 12260 ft | 190 kts | 327° |
| 2026-04-26 10:00 | 51.73294 | 15.45541 | 12260 ft | 190 kts | 327° |
| 2026-04-26 10:00 | 51.74382 | 15.44327 | 12261 ft | 190 kts | 327° |
| 2026-04-26 10:00 | 51.75472 | 15.43107 | 12274 ft | 190 kts | 327° |
| 2026-04-26 10:01 | 51.76542 | 15.41900 | 12271 ft | 190 kts | 327° |
| 2026-04-26 10:01 | 51.77629 | 15.40671 | 12273 ft | 190 kts | 327° |
| 2026-04-26 10:01 | 51.78715 | 15.39442 | 12272 ft | 190 kts | 327° |
| 2026-04-26 10:01 | 51.79801 | 15.38212 | 12273 ft | 190 kts | 327° |
| 2026-04-26 10:02 | 51.80884 | 15.36985 | 12274 ft | 190 kts | 327° |
| 2026-04-26 10:02 | 51.81967 | 15.35758 | 12271 ft | 190 kts | 327° |
| 2026-04-26 10:02 | 51.83050 | 15.34534 | 12271 ft | 190 kts | 327° |
| 2026-04-26 10:02 | 51.84116 | 15.33322 | 12277 ft | 190 kts | 327° |
| 2026-04-26 10:03 | 51.85175 | 15.32123 | 12274 ft | 189 kts | 327° |
| 2026-04-26 10:03 | 51.86255 | 15.30895 | 12273 ft | 189 kts | 327° |
| 2026-04-26 10:03 | 51.87332 | 15.29673 | 12275 ft | 189 kts | 327° |
| 2026-04-26 10:03 | 51.88413 | 15.28443 | 12273 ft | 189 kts | 327° |
| 2026-04-26 10:04 | 51.89493 | 15.27213 | 12262 ft | 190 kts | 327° |
| 2026-04-26 10:04 | 51.90576 | 15.25991 | 12264 ft | 190 kts | 327° |
| 2026-04-26 10:04 | 51.91660 | 15.24767 | 12264 ft | 190 kts | 327° |
| 2026-04-26 10:04 | 51.92747 | 15.23543 | 12263 ft | 190 kts | 327° |
| 2026-04-26 10:05 | 51.93834 | 15.22317 | 12264 ft | 190 kts | 327° |
| 2026-04-26 10:05 | 51.94907 | 15.21106 | 12264 ft | 190 kts | 327° |
| 2026-04-26 10:05 | 51.95994 | 15.19879 | 12267 ft | 190 kts | 327° |
| 2026-04-26 10:05 | 51.97080 | 15.18654 | 12267 ft | 190 kts | 327° |
| 2026-04-26 10:06 | 51.98165 | 15.17429 | 12266 ft | 190 kts | 327° |
| 2026-04-26 10:06 | 51.99252 | 15.16202 | 12267 ft | 190 kts | 327° |
| 2026-04-26 10:06 | 52.00337 | 15.14974 | 12266 ft | 190 kts | 327° |
| 2026-04-26 10:06 | 52.01422 | 15.13750 | 12266 ft | 190 kts | 327° |
| 2026-04-26 10:07 | 52.02507 | 15.12525 | 12270 ft | 190 kts | 327° |
| 2026-04-26 10:07 | 52.03593 | 15.11296 | 12289 ft | 190 kts | 327° |
| 2026-04-26 10:07 | 52.04676 | 15.10068 | 12282 ft | 190 kts | 327° |
| 2026-04-26 10:07 | 52.05767 | 15.08830 | 12286 ft | 190 kts | 327° |
| 2026-04-26 10:08 | 52.06835 | 15.07619 | 12282 ft | 190 kts | 327° |
| 2026-04-26 10:08 | 52.07919 | 15.06387 | 12283 ft | 190 kts | 327° |
| 2026-04-26 10:08 | 52.09003 | 15.05157 | 12283 ft | 190 kts | 327° |
| 2026-04-26 10:08 | 52.10085 | 15.03926 | 12283 ft | 190 kts | 327° |
| 2026-04-26 10:09 | 52.11168 | 15.02695 | 12282 ft | 190 kts | 327° |
| 2026-04-26 10:09 | 52.12250 | 15.01463 | 12283 ft | 190 kts | 327° |
| 2026-04-26 10:09 | 52.13332 | 15.00233 | 12283 ft | 190 kts | 327° |
| 2026-04-26 10:09 | 52.14416 | 14.98999 | 12285 ft | 190 kts | 327° |
| 2026-04-26 10:10 | 52.15498 | 14.97768 | 12283 ft | 190 kts | 327° |
| 2026-04-26 10:10 | 52.16578 | 14.96535 | 12286 ft | 190 kts | 327° |
| 2026-04-26 10:10 | 52.17660 | 14.95302 | 12286 ft | 190 kts | 327° |
| 2026-04-26 10:10 | 52.18731 | 14.94082 | 12284 ft | 190 kts | 327° |
| 2026-04-26 10:11 | 52.19770 | 14.92760 | 12257 ft | 191 kts | 317° |
| 2026-04-26 10:11 | 52.20478 | 14.90902 | 12274 ft | 193 kts | 305° |
| 2026-04-26 10:11 | 52.21161 | 14.89013 | 12277 ft | 194 kts | 307° |
| 2026-04-26 10:11 | 52.21864 | 14.87130 | 12280 ft | 194 kts | 307° |
| 2026-04-26 10:12 | 52.22569 | 14.85241 | 12279 ft | 195 kts | 307° |
| 2026-04-26 10:12 | 52.23274 | 14.83352 | 12282 ft | 195 kts | 307° |
| 2026-04-26 10:12 | 52.23980 | 14.81456 | 12282 ft | 196 kts | 307° |
| 2026-04-26 10:12 | 52.24690 | 14.79553 | 12284 ft | 196 kts | 307° |
| 2026-04-26 10:13 | 52.25401 | 14.77649 | 12289 ft | 196 kts | 307° |
| 2026-04-26 10:13 | 52.26113 | 14.75739 | 12288 ft | 197 kts | 307° |
| 2026-04-26 10:13 | 52.26818 | 14.73852 | 12290 ft | 197 kts | 307° |
| 2026-04-26 10:13 | 52.27532 | 14.71935 | 12291 ft | 198 kts | 307° |
| 2026-04-26 10:14 | 52.28246 | 14.70017 | 12284 ft | 198 kts | 307° |
| 2026-04-26 10:14 | 52.28962 | 14.68093 | 12286 ft | 198 kts | 307° |
| 2026-04-26 10:14 | 52.29678 | 14.66172 | 12284 ft | 198 kts | 307° |
| 2026-04-26 10:14 | 52.30393 | 14.64248 | 12284 ft | 198 kts | 307° |
| 2026-04-26 10:15 | 52.31107 | 14.62327 | 12288 ft | 198 kts | 307° |
| 2026-04-26 10:15 | 52.31821 | 14.60405 | 12286 ft | 198 kts | 307° |
| 2026-04-26 10:15 | 52.32535 | 14.58483 | 12288 ft | 198 kts | 307° |
| 2026-04-26 10:15 | 52.33250 | 14.56560 | 12283 ft | 198 kts | 307° |
| 2026-04-26 10:16 | 52.33957 | 14.54663 | 12287 ft | 197 kts | 307° |
| 2026-04-26 10:16 | 52.34671 | 14.52736 | 12286 ft | 197 kts | 307° |
| 2026-04-26 10:16 | 52.35384 | 14.50818 | 12288 ft | 197 kts | 307° |
| 2026-04-26 10:16 | 52.36099 | 14.48892 | 12308 ft | 197 kts | 307° |
| 2026-04-26 10:17 | 52.36811 | 14.46966 | 12290 ft | 198 kts | 307° |
| 2026-04-26 10:17 | 52.37595 | 14.45148 | 12282 ft | 193 kts | 316° |
| 2026-04-26 10:17 | 52.38577 | 14.43667 | 12284 ft | 191 kts | 322° |
| 2026-04-26 10:17 | 52.39565 | 14.42250 | 12284 ft | 191 kts | 323° |
| 2026-04-26 10:18 | 52.40597 | 14.40880 | 12285 ft | 190 kts | 323° |
| 2026-04-26 10:18 | 52.41618 | 14.39489 | 12285 ft | 191 kts | 323° |
| 2026-04-26 10:18 | 52.42638 | 14.38097 | 12287 ft | 191 kts | 323° |
| 2026-04-26 10:18 | 52.43659 | 14.36699 | 12286 ft | 191 kts | 323° |
| 2026-04-26 10:19 | 52.44681 | 14.35302 | 12287 ft | 191 kts | 323° |
| 2026-04-26 10:19 | 52.45702 | 14.33903 | 12287 ft | 191 kts | 323° |
| 2026-04-26 10:19 | 52.46724 | 14.32506 | 12287 ft | 191 kts | 323° |
| 2026-04-26 10:19 | 52.47747 | 14.31106 | 12285 ft | 191 kts | 323° |
| 2026-04-26 10:20 | 52.48768 | 14.29706 | 12289 ft | 191 kts | 323° |
| 2026-04-26 10:20 | 52.49442 | 14.28781 | 12288 ft | 191 kts | 323° |
| 2026-04-26 10:20 | 52.50806 | 14.26909 | 12290 ft | 191 kts | 323° |
| 2026-04-26 10:20 | 52.51814 | 14.25525 | 12289 ft | 191 kts | 323° |
| 2026-04-26 10:21 | 52.52836 | 14.24123 | 12289 ft | 191 kts | 323° |
| 2026-04-26 10:21 | 52.53855 | 14.22720 | 12288 ft | 191 kts | 323° |
| 2026-04-26 10:21 | 52.54877 | 14.21319 | 12289 ft | 191 kts | 323° |
| 2026-04-26 10:21 | 52.55898 | 14.19916 | 12290 ft | 191 kts | 323° |
| 2026-04-26 10:22 | 52.56917 | 14.18515 | 12291 ft | 191 kts | 323° |
| 2026-04-26 10:22 | 52.57936 | 14.17112 | 12294 ft | 191 kts | 323° |
| 2026-04-26 10:22 | 52.58955 | 14.15711 | 12288 ft | 191 kts | 323° |
| 2026-04-26 10:22 | 52.59973 | 14.14310 | 12289 ft | 191 kts | 323° |
| 2026-04-26 10:23 | 52.60994 | 14.12905 | 12279 ft | 191 kts | 323° |
| 2026-04-26 10:23 | 52.62016 | 14.11517 | 12283 ft | 191 kts | 323° |
| 2026-04-26 10:23 | 52.63044 | 14.10123 | 12284 ft | 191 kts | 323° |
| 2026-04-26 10:23 | 52.64072 | 14.08731 | 12283 ft | 191 kts | 323° |
| 2026-04-26 10:24 | 52.65101 | 14.07336 | 12283 ft | 192 kts | 323° |
| 2026-04-26 10:24 | 52.66130 | 14.05940 | 12285 ft | 192 kts | 323° |
| 2026-04-26 10:24 | 52.67162 | 14.04541 | 12286 ft | 192 kts | 323° |
| 2026-04-26 10:24 | 52.68180 | 14.03162 | 12285 ft | 192 kts | 323° |
| 2026-04-26 10:25 | 52.69223 | 14.01746 | 12285 ft | 192 kts | 323° |
| 2026-04-26 10:25 | 52.70254 | 14.00346 | 12284 ft | 192 kts | 323° |
| 2026-04-26 10:25 | 52.71270 | 13.98965 | 12285 ft | 192 kts | 323° |
| 2026-04-26 10:25 | 52.72302 | 13.97566 | 12289 ft | 192 kts | 323° |
| 2026-04-26 10:26 | 52.73333 | 13.96165 | 12287 ft | 192 kts | 323° |
| 2026-04-26 10:26 | 52.74365 | 13.94760 | 12288 ft | 192 kts | 323° |
| 2026-04-26 10:26 | 52.75396 | 13.93358 | 12289 ft | 192 kts | 323° |
| 2026-04-26 10:26 | 52.76430 | 13.91953 | 12290 ft | 192 kts | 323° |
| 2026-04-26 10:27 | 52.77463 | 13.90550 | 12291 ft | 193 kts | 323° |
| 2026-04-26 10:27 | 52.78500 | 13.89137 | 12290 ft | 193 kts | 323° |
| 2026-04-26 10:27 | 52.79536 | 13.87728 | 12291 ft | 193 kts | 323° |
| 2026-04-26 10:27 | 52.80572 | 13.86320 | 12290 ft | 193 kts | 323° |
| 2026-04-26 10:28 | 52.81593 | 13.84930 | 12290 ft | 192 kts | 323° |
| 2026-04-26 10:28 | 52.82626 | 13.83522 | 12290 ft | 192 kts | 323° |
| 2026-04-26 10:28 | 52.83660 | 13.82114 | 12294 ft | 193 kts | 323° |
| 2026-04-26 10:28 | 52.84695 | 13.80705 | 12292 ft | 192 kts | 323° |
| 2026-04-26 10:29 | 52.85731 | 13.79291 | 12292 ft | 192 kts | 323° |
| 2026-04-26 10:29 | 52.86762 | 13.77884 | 12292 ft | 192 kts | 323° |
| 2026-04-26 10:29 | 52.87793 | 13.76477 | 12292 ft | 192 kts | 323° |
| 2026-04-26 10:29 | 52.88825 | 13.75071 | 12297 ft | 191 kts | 323° |
| 2026-04-26 10:30 | 52.89848 | 13.73690 | 12293 ft | 192 kts | 323° |
| 2026-04-26 10:30 | 52.90888 | 13.72283 | 12291 ft | 193 kts | 323° |
| 2026-04-26 10:30 | 52.91858 | 13.70974 | 12298 ft | 193 kts | 323° |
| 2026-04-26 10:30 | 52.92907 | 13.69573 | 12291 ft | 193 kts | 324° |
| 2026-04-26 10:31 | 52.93999 | 13.68281 | 12296 ft | 192 kts | 327° |
| 2026-04-26 10:31 | 52.95100 | 13.67015 | 12302 ft | 193 kts | 326° |
| 2026-04-26 10:31 | 52.96195 | 13.65716 | 12304 ft | 193 kts | 326° |
| 2026-04-26 10:31 | 52.97280 | 13.64408 | 12300 ft | 193 kts | 324° |
| 2026-04-26 10:32 | 52.98307 | 13.62982 | 12300 ft | 192 kts | 322° |
| 2026-04-26 10:32 | 52.99342 | 13.61563 | 12300 ft | 192 kts | 323° |
| 2026-04-26 10:32 | 53.00377 | 13.60148 | 12299 ft | 192 kts | 323° |
| 2026-04-26 10:32 | 53.01490 | 13.58950 | 12292 ft | 191 kts | 334° |
| 2026-04-26 10:33 | 53.02733 | 13.58255 | 12290 ft | 192 kts | 346° |
| 2026-04-26 10:33 | 53.04070 | 13.58064 | 12292 ft | 193 kts | 354° |
| 2026-04-26 10:33 | 53.05410 | 13.57939 | 12293 ft | 193 kts | 352° |
| 2026-04-26 10:33 | 53.06750 | 13.57774 | 12296 ft | 193 kts | 352° |
| 2026-04-26 10:34 | 53.08091 | 13.57606 | 12298 ft | 193 kts | 352° |
| 2026-04-26 10:34 | 53.09435 | 13.57440 | 12297 ft | 194 kts | 352° |
| 2026-04-26 10:34 | 53.10780 | 13.57270 | 12297 ft | 194 kts | 352° |
| 2026-04-26 10:34 | 53.12129 | 13.57104 | 12299 ft | 194 kts | 352° |
| 2026-04-26 10:35 | 53.13457 | 13.56936 | 12297 ft | 194 kts | 352° |
| 2026-04-26 10:35 | 53.14805 | 13.56765 | 12299 ft | 194 kts | 352° |
| 2026-04-26 10:35 | 53.16151 | 13.56594 | 12300 ft | 194 kts | 352° |
| 2026-04-26 10:35 | 53.17497 | 13.56421 | 12303 ft | 194 kts | 352° |
| 2026-04-26 10:36 | 53.18844 | 13.56249 | 12303 ft | 194 kts | 352° |
| 2026-04-26 10:36 | 53.20194 | 13.56079 | 12306 ft | 194 kts | 352° |
| 2026-04-26 10:36 | 53.21545 | 13.55911 | 12307 ft | 195 kts | 352° |
| 2026-04-26 10:36 | 53.22897 | 13.55744 | 12309 ft | 195 kts | 352° |
| 2026-04-26 10:37 | 53.24250 | 13.55569 | 12311 ft | 195 kts | 352° |
| 2026-04-26 10:37 | 53.25600 | 13.55396 | 12311 ft | 194 kts | 352° |
| 2026-04-26 10:37 | 53.26945 | 13.55186 | 12305 ft | 192 kts | 348° |
| 2026-04-26 10:37 | 53.28170 | 13.54413 | 12293 ft | 192 kts | 330° |
| 2026-04-26 10:38 | 53.29159 | 13.52911 | 12297 ft | 195 kts | 313° |
| 2026-04-26 10:38 | 53.29929 | 13.51047 | 12304 ft | 195 kts | 309° |
| 2026-04-26 10:38 | 53.30683 | 13.49161 | 12305 ft | 195 kts | 309° |
| 2026-04-26 10:38 | 53.31435 | 13.47267 | 12307 ft | 196 kts | 309° |
| 2026-04-26 10:39 | 53.32186 | 13.45367 | 12278 ft | 196 kts | 309° |
| 2026-04-26 10:39 | 53.32972 | 13.43522 | 12301 ft | 194 kts | 312° |
| 2026-04-26 10:39 | 53.33832 | 13.41770 | 12301 ft | 195 kts | 314° |
| 2026-04-26 10:39 | 53.34687 | 13.39997 | 12299 ft | 196 kts | 313° |
| 2026-04-26 10:40 | 53.35539 | 13.38208 | 12303 ft | 197 kts | 313° |
| 2026-04-26 10:40 | 53.36384 | 13.36434 | 12303 ft | 197 kts | 313° |
| 2026-04-26 10:40 | 53.37237 | 13.34641 | 12305 ft | 197 kts | 313° |
| 2026-04-26 10:40 | 53.38091 | 13.32844 | 12305 ft | 197 kts | 313° |
| 2026-04-26 10:41 | 53.38948 | 13.31046 | 12302 ft | 197 kts | 313° |
| 2026-04-26 10:41 | 53.39876 | 13.29377 | 12297 ft | 195 kts | 320° |
| 2026-04-26 10:41 | 53.40920 | 13.27933 | 12302 ft | 194 kts | 323° |
| 2026-04-26 10:41 | 53.41968 | 13.26490 | 12305 ft | 195 kts | 323° |
| 2026-04-26 10:42 | 53.42659 | 13.25531 | 12305 ft | 195 kts | 323° |
| 2026-04-26 10:42 | 53.43678 | 13.24027 | 12302 ft | 196 kts | 317° |
| 2026-04-26 10:42 | 53.44542 | 13.22256 | 12304 ft | 196 kts | 314° |
| 2026-04-26 10:42 | 53.45423 | 13.20516 | 12312 ft | 196 kts | 314° |
| 2026-04-26 10:43 | 53.46301 | 13.18746 | 12219 ft | 200 kts | 314° |
| 2026-04-26 10:43 | 53.47207 | 13.16917 | 12023 ft | 207 kts | 314° |
| 2026-04-26 10:43 | 53.48145 | 13.15036 | 11843 ft | 212 kts | 314° |
| 2026-04-26 10:43 | 53.49100 | 13.13122 | 11669 ft | 215 kts | 314° |
| 2026-04-26 10:44 | 53.50057 | 13.11218 | 11507 ft | 217 kts | 314° |
| 2026-04-26 10:44 | 53.51040 | 13.09270 | 11341 ft | 219 kts | 314° |
| 2026-04-26 10:44 | 53.52028 | 13.07312 | 11175 ft | 220 kts | 314° |
| 2026-04-26 10:44 | 53.53026 | 13.05345 | 11021 ft | 221 kts | 314° |
| 2026-04-26 10:45 | 53.54026 | 13.03367 | 10858 ft | 222 kts | 313° |
| 2026-04-26 10:45 | 53.55037 | 13.01391 | 10682 ft | 223 kts | 314° |
| 2026-04-26 10:45 | 53.56058 | 12.99411 | 10527 ft | 224 kts | 314° |
| 2026-04-26 10:45 | 53.57084 | 12.97425 | 10357 ft | 225 kts | 314° |
| 2026-04-26 10:46 | 53.58116 | 12.95436 | 10201 ft | 226 kts | 314° |
| 2026-04-26 10:46 | 53.59141 | 12.93464 | 10028 ft | 227 kts | 314° |
| 2026-04-26 10:46 | 53.60180 | 12.91467 | 9858 ft | 227 kts | 314° |
| 2026-04-26 10:46 | 53.61226 | 12.89458 | 9701 ft | 228 kts | 314° |
| 2026-04-26 10:47 | 53.62273 | 12.87451 | 9543 ft | 229 kts | 314° |
| 2026-04-26 10:47 | 53.63325 | 12.85433 | 9380 ft | 229 kts | 314° |
| 2026-04-26 10:47 | 53.64380 | 12.83408 | 9201 ft | 230 kts | 314° |
| 2026-04-26 10:47 | 53.65437 | 12.81380 | 9062 ft | 231 kts | 314° |
| 2026-04-26 10:48 | 53.66499 | 12.79343 | 8902 ft | 231 kts | 314° |
| 2026-04-26 10:48 | 53.67562 | 12.77306 | 8770 ft | 231 kts | 314° |
| 2026-04-26 10:48 | 53.68629 | 12.75269 | 8622 ft | 232 kts | 314° |
| 2026-04-26 10:48 | 53.69700 | 12.73225 | 8476 ft | 233 kts | 314° |
| 2026-04-26 10:49 | 53.70773 | 12.71172 | 8328 ft | 233 kts | 314° |
| 2026-04-26 10:49 | 53.71850 | 12.69117 | 8172 ft | 234 kts | 314° |
| 2026-04-26 10:49 | 53.72911 | 12.67091 | 8031 ft | 232 kts | 314° |
| 2026-04-26 10:49 | 53.73972 | 12.65064 | 7841 ft | 227 kts | 314° |
| 2026-04-26 10:50 | 53.75003 | 12.63089 | 7662 ft | 221 kts | 314° |
| 2026-04-26 10:50 | 53.75688 | 12.61777 | 7545 ft | 219 kts | 314° |
| 2026-04-26 10:50 | 53.77146 | 12.59500 | 7255 ft | 214 kts | 330° |
| 2026-04-26 10:50 | 53.78562 | 12.58594 | 6820 ft | 223 kts | 347° |
| 2026-04-26 10:51 | 53.80130 | 12.58270 | 6349 ft | 229 kts | 354° |
| 2026-04-26 10:51 | 53.83314 | 12.57806 | 5829 ft | 227 kts | 355° |
| 2026-04-26 10:51 | 53.84824 | 12.57713 | 5915 ft | 214 kts | 358° |
| 2026-04-26 10:52 | 53.86330 | 12.57512 | 5615 ft | 219 kts | 352° |
| 2026-04-26 10:52 | 53.87862 | 12.57210 | 5271 ft | 224 kts | 355° |
| 2026-04-26 10:52 | 53.89428 | 12.57126 | 5095 ft | 223 kts | 358° |
| 2026-04-26 10:52 | 53.90959 | 12.57555 | 4729 ft | 229 kts | 20° |
| 2026-04-26 10:53 | 53.92235 | 12.59230 | 4348 ft | 239 kts | 50° |
| 2026-04-26 10:53 | 53.92676 | 12.61914 | 4209 ft | 241 kts | 89° |
| 2026-04-26 10:53 | 53.92063 | 12.64511 | 4109 ft | 236 kts | 125° |
| 2026-04-26 10:54 | 53.89352 | 12.65440 | 3935 ft | 208 kts | 217° |
| 2026-04-26 10:54 | 53.88654 | 12.63482 | 3781 ft | 190 kts | 266° |
| 2026-04-26 10:54 | 53.88657 | 12.61244 | 3381 ft | 198 kts | 277° |
| 2026-04-26 10:54 | 53.88948 | 12.59025 | 3311 ft | 183 kts | 291° |
| 2026-04-26 10:55 | 53.89347 | 12.57054 | 3248 ft | 175 kts | 294° |
| 2026-04-26 10:55 | 53.89586 | 12.54940 | 2952 ft | 189 kts | 277° |
| 2026-04-26 10:55 | 53.89670 | 12.52722 | 2729 ft | 192 kts | 279° |
| 2026-04-26 10:55 | 53.89848 | 12.50468 | 2460 ft | 193 kts | 284° |
| 2026-04-26 10:56 | 53.90058 | 12.48233 | 2352 ft | 192 kts | 279° |
| 2026-04-26 10:56 | 53.90200 | 12.45968 | 2069 ft | 195 kts | 280° |
| 2026-04-26 10:56 | 53.90326 | 12.43678 | 1916 ft | 194 kts | 279° |
| 2026-04-26 10:56 | 53.90532 | 12.41464 | 1766 ft | 186 kts | 285° |
| 2026-04-26 10:57 | 53.90783 | 12.39412 | 1383 ft | 166 kts | 285° |
| 2026-04-26 10:57 | 53.90927 | 12.37638 | 1193 ft | 131 kts | 283° |
| 2026-04-26 10:57 | 53.91011 | 12.36263 | 900 ft | 118 kts | 281° |
| 2026-04-26 10:57 | 53.91122 | 12.34872 | 697 ft | 116 kts | 290° |
| 2026-04-26 10:58 | 53.91334 | 12.33507 | 738 ft | 126 kts | 289° |
| 2026-04-26 10:58 | 53.91466 | 12.32070 | 544 ft | 117 kts | 281° |
| 2026-04-26 10:58 | 53.91552 | 12.30795 | 320 ft | 102 kts | 284° |
| 2026-04-26 10:58 | 53.91657 | 12.29729 | 178 ft | 83 kts | 285° |
| 2026-04-26 10:59 | 53.91727 | 12.28873 | 135 ft | 61 kts | 288° |
| 2026-04-26 10:59 | 53.91786 | 12.28240 | 140 ft | 46 kts | 278° |
| 2026-04-26 10:59 | 53.91803 | 12.28018 | 142 ft | 16 kts | 279° |
| 2026-04-26 10:59 | 53.91807 | 12.27980 | 142 ft | 0 kts | 280° |
| 2026-04-26 11:01 | 53.91811 | 12.27944 | 142 ft | 14 kts | 280° |
| 2026-04-26 11:01 | 53.91834 | 12.27623 | 145 ft | 40 kts | 279° |
| 2026-04-26 11:01 | 53.91860 | 12.27303 | 145 ft | 0 kts | 274° |
| 2026-04-26 11:02 | 53.91858 | 12.27276 | 145 ft | 8 kts | 259° |
| 2026-04-26 11:02 | 53.91830 | 12.27204 | 146 ft | 10 kts | 203° |
| 2026-04-26 11:02 | 53.91729 | 12.27179 | 146 ft | 17 kts | 188° |
| 2026-04-26 11:02 | 53.91666 | 12.27187 | 146 ft | 2 kts | 146° |
| 2026-04-26 11:03 | 53.91651 | 12.27233 | 145 ft | 6 kts | 96° |
| 2026-04-26 11:03 | 53.91643 | 12.27358 | 145 ft | 16 kts | 96° |
| 2026-04-26 11:03 | 53.91626 | 12.27570 | 143 ft | 20 kts | 97° |
| 2026-04-26 11:03 | 53.91604 | 12.27825 | 141 ft | 23 kts | 98° |
| 2026-04-26 11:04 | 53.91581 | 12.28113 | 139 ft | 26 kts | 97° |
| 2026-04-26 11:04 | 53.91557 | 12.28418 | 137 ft | 10 kts | 101° |
| 2026-04-26 11:04 | 53.91556 | 12.28422 | 137 ft | 0 kts | 101° |
| 2026-04-26 11:05 | 53.91555 | 12.28433 | 137 ft | 4 kts | 101° |
| 2026-04-26 11:05 | 53.91516 | 12.28502 | 136 ft | 10 kts | 166° |
| 2026-04-26 11:05 | 53.91467 | 12.28545 | 136 ft | 0 kts | 136° |
| 2026-04-26 11:05 | 53.91467 | 12.28546 | 136 ft | 0 kts | 136° |